createdAt,value
2018-12-16T00:00:56.700Z,17.23
2018-12-16T00:03:25.193Z,15.80
2018-12-16T00:05:54.738Z,16.90
2018-12-16T00:08:23.639Z,16.95
2018-12-16T00:10:52.475Z,15.70
2018-12-16T00:13:21.231Z,15.67
2018-12-16T00:15:49.710Z,16.27
2018-12-16T00:18:18.203Z,15.43
2018-12-16T00:20:46.717Z,15.23
2018-12-16T00:23:15.410Z,15.30
2018-12-16T00:25:43.980Z,14.60
2018-12-16T00:28:13.300Z,16.00
2018-12-16T00:30:41.697Z,14.90
2018-12-16T00:33:10.236Z,16.73
2018-12-16T00:35:38.621Z,15.43
2018-12-16T00:38:07.214Z,15.13
2018-12-16T00:40:35.629Z,15.30
2018-12-16T00:43:04.063Z,15.50
2018-12-16T00:45:32.511Z,16.10
2018-12-16T00:48:00.970Z,15.50
2018-12-16T00:50:29.465Z,16.17
2018-12-16T00:52:58.221Z,16.90
2018-12-16T00:55:26.789Z,15.50
2018-12-16T00:57:55.237Z,17.70
2018-12-16T01:00:23.757Z,15.63
2018-12-16T01:02:52.220Z,16.25
2018-12-16T01:05:20.828Z,17.43
2018-12-16T01:07:49.555Z,18.80
2018-12-16T01:10:18.215Z,17.37
2018-12-16T01:12:46.828Z,18.32
2018-12-16T01:15:15.359Z,18.17
2018-12-16T01:17:43.838Z,18.80
2018-12-16T01:20:12.298Z,17.60
2018-12-16T01:22:43.559Z,18.27
2018-12-16T01:25:11.247Z,17.70
2018-12-16T01:27:39.705Z,16.97
2018-12-16T01:30:08.250Z,16.57
2018-12-16T01:32:36.662Z,17.20
2018-12-16T01:35:06.449Z,17.07
2018-12-16T01:37:34.845Z,17.30
2018-12-16T01:40:03.785Z,19.00
2018-12-16T01:42:32.424Z,16.63
2018-12-16T01:45:00.887Z,18.12
2018-12-16T01:47:29.389Z,17.93
2018-12-16T01:49:57.783Z,18.20
2018-12-16T01:52:26.156Z,19.27
2018-12-16T01:54:55.289Z,18.97
2018-12-16T01:57:23.883Z,18.30
2018-12-16T01:59:52.424Z,18.87
2018-12-16T02:02:20.839Z,19.40
2018-12-16T02:04:49.531Z,17.47
2018-12-16T02:07:18.074Z,17.35
2018-12-16T02:09:46.586Z,16.83
2018-12-16T02:12:15.150Z,18.90
2018-12-16T02:14:43.541Z,19.30
2018-12-16T02:17:12.000Z,17.48
2018-12-16T02:19:40.649Z,16.60
2018-12-16T02:22:09.463Z,16.33
2018-12-16T02:24:37.890Z,17.50
2018-12-16T02:29:57.384Z,16.57
2018-12-16T02:32:26.022Z,18.10
2018-12-16T02:34:54.374Z,16.60
2018-12-16T02:37:22.815Z,16.60
2018-12-16T02:39:51.704Z,18.73
2018-12-16T02:42:20.337Z,18.07
2018-12-16T02:44:48.850Z,17.20
2018-12-16T02:47:17.456Z,17.90
2018-12-16T02:49:46.261Z,17.53
2018-12-16T02:52:14.800Z,17.67
2018-12-16T02:54:43.399Z,16.97
2018-12-16T02:57:11.954Z,16.93
2018-12-16T02:59:40.467Z,18.40
2018-12-16T03:02:09.242Z,15.87
2018-12-16T03:04:37.893Z,17.40
2018-12-16T03:07:06.404Z,16.07
2018-12-16T03:09:34.833Z,16.40
2018-12-16T03:12:03.499Z,15.13
2018-12-16T03:14:32.052Z,16.57
2018-12-16T03:17:00.593Z,16.17
2018-12-16T03:19:29.082Z,16.73
2018-12-16T03:21:57.692Z,15.07
2018-12-16T03:24:26.301Z,16.33
2018-12-16T03:26:54.826Z,14.53
2018-12-16T03:29:23.352Z,15.00
2018-12-16T03:31:51.979Z,16.32
2018-12-16T03:34:20.631Z,15.20
2018-12-16T03:36:49.298Z,15.90
2018-12-16T03:39:17.898Z,15.10
2018-12-16T03:41:47.355Z,15.48
2018-12-16T03:44:16.851Z,17.07
2018-12-16T03:46:45.661Z,14.93
2018-12-16T03:49:14.048Z,14.57
2018-12-16T03:51:42.647Z,15.80
2018-12-16T03:54:11.047Z,15.75
2018-12-16T03:56:39.817Z,15.80
2018-12-16T03:59:17.038Z,15.10
2018-12-16T04:01:50.344Z,14.80
2018-12-16T04:04:19.079Z,14.93
2018-12-16T04:06:47.541Z,15.87
2018-12-16T04:09:16.247Z,15.77
2018-12-16T04:11:44.847Z,13.97
2018-12-16T04:14:13.632Z,16.00
2018-12-16T04:16:42.079Z,15.13
2018-12-16T04:19:10.699Z,15.13
2018-12-16T04:21:39.698Z,16.23
2018-12-16T04:24:09.077Z,17.15
2018-12-16T04:26:37.673Z,15.73
2018-12-16T04:29:06.360Z,14.83
2018-12-16T04:31:34.941Z,15.37
2018-12-16T04:34:03.852Z,16.63
2018-12-16T04:36:32.264Z,16.52
2018-12-16T04:39:00.956Z,17.63
2018-12-16T04:41:29.664Z,16.23
2018-12-16T04:43:58.334Z,16.33
2018-12-16T04:46:27.061Z,15.80
2018-12-16T04:48:55.751Z,15.83
2018-12-16T04:51:24.805Z,15.20
2018-12-16T04:53:53.348Z,15.50
2018-12-16T04:56:22.011Z,17.13
2018-12-16T04:58:50.437Z,16.93
2018-12-16T05:01:19.621Z,15.77
2018-12-16T05:03:48.682Z,16.60
2018-12-16T05:06:17.580Z,15.83
2018-12-16T05:08:46.166Z,15.70
2018-12-16T05:11:15.782Z,15.90
2018-12-16T05:13:44.421Z,15.03
2018-12-16T05:16:45.633Z,17.53
2018-12-16T05:19:14.950Z,16.47
2018-12-16T05:21:43.685Z,16.85
2018-12-16T05:24:12.074Z,19.43
2018-12-16T05:26:40.553Z,21.53
2018-12-16T05:29:09.620Z,16.13
2018-12-16T05:31:38.227Z,16.07
2018-12-16T05:34:06.796Z,16.70
2018-12-16T05:36:35.267Z,15.80
2018-12-16T05:39:04.932Z,17.40
2018-12-16T05:41:33.832Z,18.10
2018-12-16T05:44:02.565Z,16.90
2018-12-16T05:46:31.473Z,17.07
2018-12-16T05:49:00.563Z,16.50
2018-12-16T05:51:29.452Z,17.27
2018-12-16T05:53:58.579Z,16.03
2018-12-16T05:56:27.252Z,16.93
2018-12-16T05:58:56.077Z,16.77
2018-12-16T06:01:24.610Z,17.73
2018-12-16T06:03:53.245Z,17.70
2018-12-16T06:06:21.984Z,16.93
2018-12-16T06:08:50.668Z,16.53
2018-12-16T06:11:19.466Z,17.53
2018-12-16T06:13:48.013Z,17.67
2018-12-16T06:16:16.765Z,17.47
2018-12-16T06:18:45.810Z,17.37
2018-12-16T06:21:16.734Z,18.43
2018-12-16T06:23:45.401Z,17.40
2018-12-16T06:26:14.138Z,17.80
2018-12-16T06:28:42.725Z,17.57
2018-12-16T06:31:11.370Z,19.47
2018-12-16T06:33:40.000Z,16.97
2018-12-16T06:36:08.761Z,17.30
2018-12-16T06:38:37.524Z,18.73
2018-12-16T06:41:06.150Z,15.50
2018-12-16T06:43:34.827Z,18.27
2018-12-16T06:46:03.574Z,18.80
2018-12-16T06:48:32.521Z,18.77
2018-12-16T06:51:00.933Z,18.50
2018-12-16T06:53:29.633Z,18.10
2018-12-16T06:55:59.519Z,18.10
2018-12-16T06:58:34.958Z,21.10
2018-12-16T07:01:04.346Z,20.53
2018-12-16T07:03:33.650Z,19.52
2018-12-16T07:06:02.863Z,22.97
2018-12-16T07:08:32.315Z,21.50
2018-12-16T07:11:02.002Z,22.17
2018-12-16T07:13:32.165Z,21.70
2018-12-16T07:35:59.232Z,24.37
2018-12-16T07:38:29.698Z,23.53
2018-12-16T07:41:34.310Z,24.50
2018-12-16T07:47:50.251Z,23.97
2018-12-16T07:50:19.431Z,24.50
2018-12-16T07:52:48.414Z,23.70
2018-12-16T07:55:18.057Z,24.17
2018-12-16T07:57:46.990Z,24.07
2018-12-16T08:00:15.903Z,23.05
2018-12-16T08:02:44.591Z,22.90
2018-12-16T08:05:14.100Z,23.10
2018-12-16T08:07:42.905Z,22.00
2018-12-16T08:10:11.700Z,21.40
2018-12-16T08:12:40.445Z,22.90
2018-12-16T08:15:09.580Z,21.67
2018-12-16T08:17:39.074Z,21.70
2018-12-16T08:20:09.642Z,22.90
2018-12-16T08:22:39.317Z,21.80
2018-12-16T08:25:08.093Z,22.20
2018-12-16T08:27:37.093Z,22.93
2018-12-16T08:30:08.119Z,20.27
2018-12-16T08:32:37.439Z,23.03
2018-12-16T08:35:07.673Z,27.03
2018-12-16T08:37:38.570Z,21.33
2018-12-16T08:40:08.455Z,19.83
2018-12-16T08:42:37.398Z,20.20
2018-12-16T08:45:07.802Z,20.77
2018-12-16T08:47:36.917Z,20.17
2018-12-16T08:50:07.499Z,20.20
2018-12-16T08:52:36.964Z,17.67
2018-12-16T08:55:05.740Z,17.93
2018-12-16T08:57:34.692Z,18.17
2018-12-16T09:00:03.829Z,18.97
2018-12-16T09:02:32.617Z,18.00
2018-12-16T09:05:01.965Z,17.47
2018-12-16T09:07:37.241Z,16.60
2018-12-16T09:10:02.675Z,17.60
2018-12-16T09:12:31.442Z,17.30
2018-12-16T09:15:00.240Z,17.33
2018-12-16T09:17:29.445Z,18.00
2018-12-16T09:19:59.897Z,18.60
2018-12-16T09:22:28.870Z,17.27
2018-12-16T09:24:57.547Z,20.47
2018-12-16T09:27:26.644Z,18.90
2018-12-16T09:29:56.316Z,17.93
2018-12-16T09:32:25.692Z,16.20
2018-12-16T09:34:57.486Z,17.10
2018-12-16T09:37:26.414Z,17.30
2018-12-16T09:39:55.072Z,16.00
2018-12-16T09:42:24.507Z,14.07
2018-12-16T09:44:57.106Z,15.20
2018-12-16T09:47:26.335Z,15.33
2018-12-16T09:49:55.777Z,14.47
2018-12-16T09:52:25.217Z,13.50
2018-12-16T09:57:26.201Z,13.60
2018-12-16T09:59:55.188Z,13.67
2018-12-16T10:02:24.056Z,13.30
2018-12-16T10:04:53.958Z,12.23
2018-12-16T10:07:23.045Z,13.00
2018-12-16T10:09:51.810Z,12.27
2018-12-16T10:12:20.539Z,12.33
2018-12-16T10:14:49.172Z,11.17
2018-12-16T10:17:18.279Z,12.10
2018-12-16T10:19:47.111Z,11.60
2018-12-16T10:22:15.837Z,11.67
2018-12-16T10:24:51.082Z,12.00
2018-12-16T10:27:15.314Z,11.38
2018-12-16T10:29:44.157Z,11.27
2018-12-16T10:32:13.062Z,11.50
2018-12-16T10:34:41.646Z,11.67
2018-12-16T10:37:10.434Z,12.20
2018-12-16T10:39:39.541Z,11.67
2018-12-16T10:42:08.306Z,9.90
2018-12-16T10:44:37.813Z,10.13
2018-12-16T10:47:06.729Z,9.87
2018-12-16T10:49:35.801Z,10.40
2018-12-16T10:52:05.014Z,10.50
2018-12-16T10:54:33.800Z,9.73
2018-12-16T10:57:02.587Z,10.27
2018-12-16T10:59:31.380Z,12.70
2018-12-16T11:01:59.965Z,10.70
2018-12-16T11:04:28.545Z,10.90
2018-12-16T11:06:57.136Z,10.47
2018-12-16T11:09:26.135Z,12.13
2018-12-16T11:11:55.003Z,10.50
2018-12-16T11:14:24.010Z,9.63
2018-12-16T11:16:53.349Z,8.97
2018-12-16T11:19:22.707Z,9.63
2018-12-16T11:21:51.582Z,9.20
2018-12-16T11:24:20.560Z,8.60
2018-12-16T11:26:49.319Z,8.17
2018-12-16T11:29:18.270Z,9.77
2018-12-16T11:31:47.384Z,6.65
2018-12-16T11:34:16.311Z,8.43
2018-12-16T11:36:45.271Z,5.90
2018-12-16T11:39:14.546Z,6.17
2018-12-16T11:41:43.720Z,5.37
2018-12-16T11:44:12.973Z,5.00
2018-12-16T11:46:41.912Z,5.60
2018-12-16T11:49:11.127Z,4.60
2018-12-16T11:51:40.438Z,4.40
2018-12-16T11:54:09.533Z,4.57
2018-12-16T11:56:38.067Z,6.80
2018-12-16T11:59:06.673Z,5.90
2018-12-16T12:01:35.986Z,4.70
2018-12-16T12:04:06.251Z,3.43
2018-12-16T12:09:33.750Z,3.03
2018-12-16T12:12:02.641Z,3.50
2018-12-16T12:14:31.445Z,3.83
2018-12-16T12:17:00.853Z,2.50
2018-12-16T12:19:37.113Z,4.57
2018-12-16T12:22:05.570Z,3.70
2018-12-16T12:24:33.212Z,3.20
2018-12-16T12:27:01.176Z,2.17
2018-12-16T12:29:29.114Z,2.57
2018-12-16T12:31:57.360Z,2.70
2018-12-16T12:34:25.031Z,2.80
2018-12-16T12:36:52.924Z,2.07
2018-12-16T12:39:21.202Z,2.57
2018-12-16T12:41:49.254Z,3.30
2018-12-16T12:44:18.233Z,1.80
2018-12-16T12:46:47.235Z,4.33
2018-12-16T12:49:15.157Z,1.90
2018-12-16T12:51:43.118Z,2.20
2018-12-16T12:54:11.199Z,1.87
2018-12-16T12:56:39.293Z,1.80
2018-12-16T12:59:07.256Z,2.70
2018-12-16T13:01:35.000Z,1.93
2018-12-16T13:04:03.265Z,2.30
2018-12-16T13:06:31.155Z,2.87
2018-12-16T13:09:00.263Z,2.23
2018-12-16T13:11:28.754Z,2.30
2018-12-16T13:13:56.681Z,1.87
2018-12-16T13:16:24.522Z,1.90
2018-12-16T13:18:52.523Z,2.27
2018-12-16T13:21:20.832Z,2.53
2018-12-16T13:23:49.393Z,2.70
2018-12-16T13:26:17.655Z,2.37
2018-12-16T13:28:46.406Z,2.60
2018-12-16T13:31:15.658Z,3.97
2018-12-16T13:33:43.821Z,4.00
2018-12-16T13:36:11.866Z,4.90
2018-12-16T13:38:40.036Z,7.23
2018-12-16T13:41:08.418Z,7.23
2018-12-16T13:43:37.243Z,7.50
2018-12-16T13:46:05.659Z,4.73
2018-12-16T13:48:34.318Z,7.07
2018-12-16T13:51:37.689Z,6.90
2018-12-16T13:54:12.135Z,5.00
2018-12-16T14:00:06.335Z,4.17
2018-12-16T14:02:40.360Z,6.53
2018-12-16T14:05:15.160Z,3.87
2018-12-16T14:07:49.607Z,5.40
2018-12-16T14:10:18.274Z,5.03
2018-12-16T14:12:47.035Z,3.87
2018-12-16T14:15:16.421Z,3.17
2018-12-16T14:17:45.748Z,4.77
2018-12-16T14:20:14.044Z,2.57
2018-12-16T14:22:41.952Z,3.57
2018-12-16T14:25:10.415Z,3.33
2018-12-16T14:27:38.496Z,4.93
2018-12-16T14:30:08.624Z,4.80
2018-12-16T14:32:37.199Z,5.70
2018-12-16T14:35:06.738Z,6.00
2018-12-16T14:37:34.850Z,6.93
2018-12-16T14:40:03.734Z,7.37
2018-12-16T14:42:32.401Z,5.97
2018-12-16T14:45:00.913Z,6.73
2018-12-16T14:47:28.820Z,6.67
2018-12-16T14:49:57.345Z,6.40
2018-12-16T14:52:25.584Z,7.33
2018-12-16T14:54:53.584Z,7.30
2018-12-16T14:57:21.738Z,7.40
2018-12-16T14:59:49.645Z,6.47
2018-12-16T15:02:17.821Z,7.00
2018-12-16T15:04:45.668Z,9.10
2018-12-16T15:07:13.666Z,17.90
2018-12-16T15:09:43.325Z,12.07
2018-12-16T15:12:12.114Z,10.53
2018-12-16T15:14:40.453Z,27.73
2018-12-16T15:17:09.128Z,14.70
2018-12-16T15:19:37.687Z,20.83
2018-12-16T15:22:06.257Z,21.20
2018-12-16T15:24:34.250Z,9.10
2018-12-16T15:27:02.048Z,10.07
2018-12-16T15:29:30.336Z,9.80
2018-12-16T15:31:58.187Z,10.60
2018-12-16T15:34:25.986Z,22.93
2018-12-16T15:36:54.082Z,14.27
2018-12-16T15:39:22.769Z,12.60
2018-12-16T15:41:50.315Z,16.50
2018-12-16T15:44:18.636Z,11.73
2018-12-16T15:46:47.684Z,8.73
2018-12-16T15:49:15.673Z,9.00
2018-12-16T15:51:43.444Z,12.83
2018-12-16T15:54:11.415Z,16.07
2018-12-16T15:56:39.328Z,10.50
2018-12-16T15:59:07.140Z,9.70
2018-12-16T16:01:35.107Z,8.77
2018-12-16T16:04:02.905Z,7.70
2018-12-16T16:06:31.893Z,9.30
2018-12-16T16:08:59.981Z,9.10
2018-12-16T16:11:28.010Z,12.17
2018-12-16T16:13:55.837Z,14.87
2018-12-16T16:16:24.455Z,17.57
2018-12-16T16:18:52.790Z,18.30
2018-12-16T16:21:20.817Z,21.80
2018-12-16T16:23:49.085Z,25.10
2018-12-16T16:26:16.944Z,21.70
2018-12-16T16:28:44.927Z,20.13
2018-12-16T16:31:12.851Z,20.60
2018-12-16T16:33:40.573Z,20.30
2018-12-16T16:36:08.964Z,19.13
2018-12-16T16:38:36.861Z,23.30
2018-12-16T16:41:04.880Z,13.70
2018-12-16T16:43:32.580Z,14.37
2018-12-16T16:46:00.402Z,13.80
2018-12-16T16:48:28.310Z,12.80
2018-12-16T16:50:56.464Z,14.63
2018-12-16T16:53:24.541Z,15.30
2018-12-16T16:55:52.173Z,17.50
2018-12-16T16:58:20.140Z,18.60
2018-12-16T17:00:48.001Z,16.47
2018-12-16T17:03:16.155Z,18.90
2018-12-16T17:05:44.050Z,16.03
2018-12-16T17:08:11.701Z,15.63
2018-12-16T17:10:39.300Z,14.83
2018-12-16T17:13:07.335Z,14.00
2018-12-16T17:15:35.232Z,15.20
2018-12-16T17:18:03.909Z,15.53
2018-12-16T17:20:32.279Z,15.23
2018-12-16T17:23:00.521Z,14.10
2018-12-16T17:25:28.739Z,10.30
2018-12-16T17:27:56.694Z,10.23
2018-12-16T17:30:26.102Z,13.80
2018-12-16T17:32:54.258Z,11.20
2018-12-16T17:35:22.241Z,11.57
2018-12-16T17:37:50.563Z,16.20
2018-12-16T17:40:18.471Z,13.57
2018-12-16T17:42:46.883Z,16.80
2018-12-16T17:45:14.527Z,14.83
2018-12-16T17:47:42.163Z,13.53
2018-12-16T17:50:10.374Z,16.20
2018-12-16T17:52:39.036Z,15.90
2018-12-16T17:55:07.432Z,16.60
2018-12-16T17:57:35.201Z,16.17
2018-12-16T18:00:03.957Z,22.07
2018-12-16T18:02:32.334Z,18.40
2018-12-16T18:05:00.262Z,19.73
2018-12-16T18:07:28.573Z,25.17
2018-12-16T18:09:56.687Z,27.63
2018-12-16T18:12:24.571Z,28.70
2018-12-16T18:14:52.731Z,22.17
2018-12-16T18:17:20.652Z,21.13
2018-12-16T18:19:48.411Z,18.83
2018-12-16T18:22:16.582Z,20.37
2018-12-16T18:24:44.601Z,19.00
2018-12-16T18:27:12.495Z,18.67
2018-12-16T18:29:40.286Z,17.67
2018-12-16T18:32:08.248Z,15.37
2018-12-16T18:34:36.437Z,22.30
2018-12-16T18:37:04.365Z,26.40
2018-12-16T18:39:31.914Z,26.60
2018-12-16T18:41:59.906Z,25.57
2018-12-16T18:44:28.197Z,22.03
2018-12-16T18:46:56.133Z,21.80
2018-12-16T18:49:24.418Z,17.80
2018-12-16T18:51:52.525Z,35.50
2018-12-16T18:54:24.417Z,24.50
2018-12-16T18:57:13.368Z,16.57
2018-12-16T18:59:56.757Z,16.30
2018-12-16T19:02:25.876Z,14.40
2018-12-16T19:04:53.714Z,12.60
2018-12-16T19:07:22.172Z,12.70
2018-12-16T19:09:50.284Z,13.60
2018-12-16T19:12:18.475Z,12.53
2018-12-16T19:14:47.210Z,12.27
2018-12-16T19:17:15.534Z,12.63
2018-12-16T19:19:43.805Z,12.30
2018-12-16T19:22:11.773Z,14.23
2018-12-16T19:24:39.794Z,16.50
2018-12-16T19:27:07.779Z,16.10
2018-12-16T19:29:35.933Z,15.37
2018-12-16T19:32:04.107Z,14.83
2018-12-16T19:34:33.120Z,15.37
2018-12-16T19:37:01.446Z,18.63
2018-12-16T19:39:29.524Z,21.40
2018-12-16T19:41:58.141Z,24.10
2018-12-16T19:44:26.127Z,23.43
2018-12-16T19:46:55.095Z,24.13
2018-12-16T19:49:23.672Z,21.53
2018-12-16T19:51:52.182Z,20.30
2018-12-16T19:54:20.999Z,19.70
2018-12-16T19:56:49.024Z,19.90
2018-12-16T19:59:17.486Z,19.90
2018-12-16T20:01:46.189Z,23.13
2018-12-16T20:04:19.282Z,21.73
2018-12-16T20:06:47.978Z,21.27
2018-12-16T20:09:16.566Z,20.03
2018-12-16T20:11:44.729Z,20.63
2018-12-16T20:14:13.029Z,20.20
2018-12-16T20:16:41.261Z,22.03
2018-12-16T20:19:09.894Z,23.13
2018-12-16T20:21:38.553Z,23.80
2018-12-16T20:24:09.576Z,25.30
2018-12-16T20:26:37.944Z,26.20
2018-12-16T20:29:05.974Z,28.43
2018-12-16T20:31:34.341Z,22.80
2018-12-16T20:34:02.994Z,22.35
2018-12-16T20:36:31.374Z,22.93
2018-12-16T20:38:59.619Z,25.40
2018-12-16T20:41:27.785Z,24.37
2018-12-16T20:43:56.071Z,23.23
2018-12-16T20:46:23.945Z,31.97
2018-12-16T20:48:52.196Z,31.33
2018-12-16T20:51:19.901Z,25.73
2018-12-16T20:53:48.017Z,24.07
2018-12-16T20:56:15.808Z,24.50
2018-12-16T20:58:43.861Z,26.70
2018-12-16T21:01:11.819Z,18.60
2018-12-16T21:03:39.844Z,16.57
2018-12-16T21:06:07.884Z,23.67
2018-12-16T21:08:35.794Z,24.63
2018-12-16T21:11:09.115Z,14.33
2018-12-16T21:13:42.727Z,17.87
2018-12-16T21:16:16.550Z,22.30
2018-12-16T21:18:44.794Z,14.90
2018-12-16T21:21:12.686Z,16.50
2018-12-16T21:23:40.615Z,20.47
2018-12-16T21:26:08.251Z,24.30
2018-12-16T21:28:36.167Z,16.47
2018-12-16T21:31:04.026Z,16.40
2018-12-16T21:33:31.992Z,15.97
2018-12-16T21:35:59.918Z,19.17
2018-12-16T21:38:27.812Z,20.97
2018-12-16T21:40:55.963Z,23.43
2018-12-16T21:43:24.042Z,22.20
2018-12-16T21:45:52.290Z,21.37
2018-12-16T21:48:20.099Z,21.50
2018-12-16T21:50:48.014Z,20.17
2018-12-16T21:53:15.868Z,22.87
2018-12-16T21:55:43.416Z,27.33
2018-12-16T21:58:11.277Z,19.20
2018-12-16T22:00:39.150Z,19.63
2018-12-16T22:03:07.142Z,35.30
2018-12-16T22:05:34.845Z,23.87
2018-12-16T22:08:02.947Z,28.87
2018-12-16T22:10:30.950Z,25.73
2018-12-16T22:12:58.779Z,23.40
2018-12-16T22:15:26.534Z,25.90
2018-12-16T22:17:54.092Z,20.93
2018-12-16T22:20:22.368Z,18.70
2018-12-16T22:22:50.196Z,20.00
2018-12-16T22:25:18.038Z,18.10
2018-12-16T22:27:46.076Z,19.67
2018-12-16T22:30:14.645Z,19.03
2018-12-16T22:32:42.504Z,22.50
2018-12-16T22:35:11.285Z,19.97
2018-12-16T22:37:39.021Z,15.83
2018-12-16T22:40:07.715Z,13.83
2018-12-16T22:42:35.814Z,14.77
2018-12-16T22:45:04.763Z,13.93
2018-12-16T22:47:32.701Z,14.57
2018-12-16T22:50:00.460Z,15.80
2018-12-16T22:52:28.102Z,14.37
2018-12-16T22:54:55.794Z,17.17
2018-12-16T22:57:23.517Z,18.97
2018-12-16T22:59:51.558Z,20.80
2018-12-16T23:02:19.256Z,20.63
2018-12-16T23:04:47.146Z,20.57
2018-12-16T23:07:14.870Z,19.13
2018-12-16T23:09:42.691Z,18.00
2018-12-16T23:12:10.265Z,19.53
2018-12-16T23:14:38.227Z,18.17
2018-12-16T23:17:05.772Z,19.93
2018-12-16T23:19:33.730Z,17.60
2018-12-16T23:22:01.473Z,18.77
2018-12-16T23:24:29.729Z,18.43
2018-12-16T23:26:57.522Z,19.37
2018-12-16T23:29:25.191Z,20.80
2018-12-16T23:31:52.678Z,20.50
2018-12-16T23:34:20.277Z,21.87
2018-12-16T23:36:48.088Z,17.90
2018-12-16T23:39:15.667Z,18.53
2018-12-16T23:41:43.511Z,17.23
2018-12-16T23:44:11.213Z,17.97
2018-12-16T23:46:39.246Z,22.37
2018-12-16T23:49:07.091Z,18.70
2018-12-16T23:51:34.805Z,19.60
2018-12-16T23:54:02.716Z,20.77
2018-12-16T23:56:30.663Z,21.07
2018-12-16T23:58:58.513Z,17.47
